createdAt,value
2019-06-10T00:02:10.927Z,48.0
2019-06-10T00:19:02.818Z,48.4
2019-06-10T00:35:48.521Z,48.4
2019-06-10T00:52:37.942Z,48.4
2019-06-10T01:09:27.227Z,48.4
2019-06-10T01:26:16.941Z,48.8
2019-06-10T01:43:06.318Z,49.2
2019-06-10T01:59:55.153Z,49.2
2019-06-10T02:16:50.698Z,49.2
2019-06-10T02:33:36.374Z,49.2
2019-06-10T02:50:31.920Z,49.6
2019-06-10T03:07:13.750Z,49.6
2019-06-10T03:24:02.720Z,49.6
2019-06-10T03:40:52.344Z,49.6
2019-06-10T03:57:39.507Z,50.0
2019-06-10T04:14:28.693Z,50.0
2019-06-10T04:31:18.202Z,50.0
2019-06-10T04:48:06.935Z,50.0
2019-06-10T05:04:56.033Z,50.0
2019-06-10T05:21:45.125Z,50.0
2019-06-10T05:38:35.307Z,50.4
2019-06-10T05:55:24.330Z,50.4
2019-06-10T06:12:14.319Z,50.4
2019-06-10T06:29:03.234Z,50.0
2019-06-10T06:45:53.243Z,49.6
2019-06-10T07:02:43.748Z,49.6
2019-06-10T07:19:35.014Z,49.6
2019-06-10T07:36:23.764Z,49.6
2019-06-10T16:19:19.771Z,50.0
2019-06-10T16:36:12.368Z,50.4
2019-06-10T16:53:04.445Z,50.4
2019-06-10T17:09:56.802Z,51.2
2019-06-10T17:26:49.173Z,53.2
2019-06-10T17:35:15.305Z,55.2
2019-06-10T17:52:07.269Z,56.0
2019-06-10T18:08:59.226Z,56.0
2019-06-10T18:25:52.695Z,56.0
2019-06-10T18:42:43.536Z,56.4
2019-06-10T18:59:36.687Z,56.8
2019-06-10T19:14:46.388Z,60.8
2019-06-10T19:19:49.500Z,62.0
2019-06-10T19:23:14.489Z,64.0
2019-06-10T19:26:37.039Z,66.0
2019-06-10T19:29:56.876Z,67.2
2019-06-10T19:39:59.600Z,69.6
2019-06-10T19:50:03.744Z,71.6
2019-06-10T20:03:29.447Z,71.2
2019-06-10T20:20:17.331Z,69.6
2019-06-10T20:37:05.818Z,68.8
2019-06-10T20:53:54.259Z,68.8
2019-06-10T21:10:46.142Z,68.8
2019-06-10T21:27:32.878Z,69.6
2019-06-10T21:44:19.037Z,69.2
2019-06-10T21:54:24.593Z,68.4
2019-06-10T22:11:13.973Z,66.8
2019-06-10T22:28:03.609Z,65.6
2019-06-10T22:44:57.419Z,65.2
2019-06-10T23:01:43.091Z,64.4
2019-06-10T23:18:33.047Z,64.0
2019-06-10T23:35:23.248Z,63.6
2019-06-10T23:52:12.862Z,63.2
